sensor_id;sensor_type;location;lat;lon;timestamp;pressure;altitude;pressure_sealevel;temperature;humidity
7802;BME280;3945;48.952;9.506;2023-04-28T00:01:43;97767.16;;;10.82;76.50
7802;BME280;3945;48.952;9.506;2023-04-28T00:04:09;97774.94;;;10.88;75.85
7802;BME280;3945;48.952;9.506;2023-04-28T00:06:36;97775.28;;;10.92;76.18
7802;BME280;3945;48.952;9.506;2023-04-28T00:09:04;97766.53;;;10.96;76.61
7802;BME280;3945;48.952;9.506;2023-04-28T00:11:30;97774.78;;;10.95;76.62
7802;BME280;3945;48.952;9.506;2023-04-28T00:13:56;97762.25;;;10.95;76.32
7802;BME280;3945;48.952;9.506;2023-04-28T00:16:23;97753.78;;;10.99;76.18
7802;BME280;3945;48.952;9.506;2023-04-28T00:18:49;97749.28;;;10.99;76.67
7802;BME280;3945;48.952;9.506;2023-04-28T00:21:16;97742.72;;;11.07;75.96
7802;BME280;3945;48.952;9.506;2023-04-28T00:23:42;97747.28;;;11.11;75.32
7802;BME280;3945;48.952;9.506;2023-04-28T00:26:10;97739.63;;;11.15;75.46
7802;BME280;3945;48.952;9.506;2023-04-28T00:28:37;97737.50;;;11.17;76.21
7802;BME280;3945;48.952;9.506;2023-04-28T00:31:08;97738.28;;;11.17;76.35
7802;BME280;3945;48.952;9.506;2023-04-28T00:33:35;97738.88;;;11.19;76.18
7802;BME280;3945;48.952;9.506;2023-04-28T00:36:01;97739.44;;;11.21;76.84
7802;BME280;3945;48.952;9.506;2023-04-28T00:38:27;97732.72;;;11.19;77.25
7802;BME280;3945;48.952;9.506;2023-04-28T00:40:54;97738.38;;;11.22;76.62
7802;BME280;3945;48.952;9.506;2023-04-28T00:43:21;97737.34;;;11.23;76.32
7802;BME280;3945;48.952;9.506;2023-04-28T00:45:48;97739.22;;;11.28;76.36
7802;BME280;3945;48.952;9.506;2023-04-28T00:48:15;97726.72;;;11.28;76.49
7802;BME280;3945;48.952;9.506;2023-04-28T00:50:42;97735.00;;;11.32;77.02
7802;BME280;3945;48.952;9.506;2023-04-28T00:53:09;97727.56;;;11.34;76.72
7802;BME280;3945;48.952;9.506;2023-04-28T00:55:35;97724.66;;;11.35;76.40
7802;BME280;3945;48.952;9.506;2023-04-28T00:58:02;97720.94;;;11.37;76.97
7802;BME280;3945;48.952;9.506;2023-04-28T01:00:31;97719.63;;;11.39;76.68
7802;BME280;3945;48.952;9.506;2023-04-28T01:02:57;97716.47;;;11.42;76.54
7802;BME280;3945;48.952;9.506;2023-04-28T01:05:24;97721.31;;;11.45;77.11
7802;BME280;3945;48.952;9.506;2023-04-28T01:07:51;97710.94;;;11.49;77.33
7802;BME280;3945;48.952;9.506;2023-04-28T01:10:18;97707.22;;;11.50;77.65
7802;BME280;3945;48.952;9.506;2023-04-28T01:12:44;97701.91;;;11.50;76.95
7802;BME280;3945;48.952;9.506;2023-04-28T01:15:11;97694.47;;;11.52;77.18
7802;BME280;3945;48.952;9.506;2023-04-28T01:17:41;97703.78;;;11.54;76.57
7802;BME280;3945;48.952;9.506;2023-04-28T01:20:08;97690.53;;;11.59;75.14
7802;BME280;3945;48.952;9.506;2023-04-28T01:22:35;97688.72;;;11.65;76.30
7802;BME280;3945;48.952;9.506;2023-04-28T01:25:03;97682.56;;;11.64;76.52
7802;BME280;3945;48.952;9.506;2023-04-28T01:27:29;97676.19;;;11.65;76.55
7802;BME280;3945;48.952;9.506;2023-04-28T01:29:55;97677.03;;;11.71;74.25
7802;BME280;3945;48.952;9.506;2023-04-28T01:32:22;97670.41;;;11.73;76.41
7802;BME280;3945;48.952;9.506;2023-04-28T01:34:48;97684.03;;;11.77;76.32
7802;BME280;3945;48.952;9.506;2023-04-28T01:37:15;97692.28;;;11.76;77.45
7802;BME280;3945;48.952;9.506;2023-04-28T01:39:42;97692.56;;;11.74;77.80
7802;BME280;3945;48.952;9.506;2023-04-28T01:42:09;97693.84;;;11.71;77.81
7802;BME280;3945;48.952;9.506;2023-04-28T01:44:36;97696.25;;;11.73;77.49
7802;BME280;3945;48.952;9.506;2023-04-28T01:47:02;97684.28;;;11.76;78.76
7802;BME280;3945;48.952;9.506;2023-04-28T01:49:28;97680.00;;;11.74;79.69
7802;BME280;3945;48.952;9.506;2023-04-28T01:51:55;97688.25;;;11.73;79.75
7802;BME280;3945;48.952;9.506;2023-04-28T01:54:21;97699.97;;;11.72;81.91
7802;BME280;3945;48.952;9.506;2023-04-28T01:56:47;97685.00;;;11.66;81.03
7802;BME280;3945;48.952;9.506;2023-04-28T01:59:15;97669.16;;;11.54;81.47
7802;BME280;3945;48.952;9.506;2023-04-28T02:01:43;97663.53;;;11.51;81.96
7802;BME280;3945;48.952;9.506;2023-04-28T02:04:09;97672.59;;;11.50;82.92
7802;BME280;3945;48.952;9.506;2023-04-28T02:06:35;97683.25;;;11.50;83.21
7802;BME280;3945;48.952;9.506;2023-04-28T02:09:02;97672.22;;;11.41;85.47
7802;BME280;3945;48.952;9.506;2023-04-28T02:11:28;97662.03;;;11.33;84.85
7802;BME280;3945;48.952;9.506;2023-04-28T02:13:54;97662.03;;;11.33;83.32
7802;BME280;3945;48.952;9.506;2023-04-28T02:16:22;97652.75;;;11.35;82.90
7802;BME280;3945;48.952;9.506;2023-04-28T02:18:48;97661.81;;;11.40;83.23
7802;BME280;3945;48.952;9.506;2023-04-28T02:21:15;97659.16;;;11.40;83.24
7802;BME280;3945;48.952;9.506;2023-04-28T02:23:41;97665.84;;;11.42;84.56
7802;BME280;3945;48.952;9.506;2023-04-28T02:26:07;97657.84;;;11.42;85.13
7802;BME280;3945;48.952;9.506;2023-04-28T02:28:34;97652.22;;;11.39;85.83
7802;BME280;3945;48.952;9.506;2023-04-28T02:31:04;97658.88;;;11.36;85.78
7802;BME280;3945;48.952;9.506;2023-04-28T02:33:32;97657.53;;;11.39;86.21
7802;BME280;3945;48.952;9.506;2023-04-28T02:35:58;97651.97;;;11.40;86.46
7802;BME280;3945;48.952;9.506;2023-04-28T02:38:25;97652.53;;;11.42;86.81
7802;BME280;3945;48.952;9.506;2023-04-28T02:40:56;97646.41;;;11.42;87.08
7802;BME280;3945;48.952;9.506;2023-04-28T02:43:22;97649.31;;;11.40;86.96
7802;BME280;3945;48.952;9.506;2023-04-28T02:45:48;97645.59;;;11.41;87.02
7802;BME280;3945;48.952;9.506;2023-04-28T02:48:15;97641.31;;;11.40;87.99
7802;BME280;3945;48.952;9.506;2023-04-28T02:50:42;97637.84;;;11.40;87.65
7802;BME280;3945;48.952;9.506;2023-04-28T02:53:10;97646.16;;;11.43;88.54
7802;BME280;3945;48.952;9.506;2023-04-28T02:55:36;97645.34;;;11.43;88.95
7802;BME280;3945;48.952;9.506;2023-04-28T02:58:02;97646.41;;;11.42;89.74
7802;BME280;3945;48.952;9.506;2023-04-28T03:00:29;97634.66;;;11.38;90.46
7802;BME280;3945;48.952;9.506;2023-04-28T03:02:55;97631.97;;;11.38;89.84
7802;BME280;3945;48.952;9.506;2023-04-28T03:05:21;97637.56;;;11.36;89.61
7802;BME280;3945;48.952;9.506;2023-04-28T03:07:49;97639.69;;;11.39;89.01
7802;BME280;3945;48.952;9.506;2023-04-28T03:10:16;97629.34;;;11.43;88.94
7802;BME280;3945;48.952;9.506;2023-04-28T03:12:42;97632.31;;;11.46;88.75
7802;BME280;3945;48.952;9.506;2023-04-28T03:15:09;97634.47;;;11.49;89.39
7802;BME280;3945;48.952;9.506;2023-04-28T03:17:36;97636.09;;;11.50;89.86
7802;BME280;3945;48.952;9.506;2023-04-28T03:20:06;97634.47;;;11.49;89.93
7802;BME280;3945;48.952;9.506;2023-04-28T03:22:32;97630.50;;;11.52;90.08
7802;BME280;3945;48.952;9.506;2023-04-28T03:25:00;97640.88;;;11.53;90.50
7802;BME280;3945;48.952;9.506;2023-04-28T03:27:26;97649.41;;;11.50;90.23
7802;BME280;3945;48.952;9.506;2023-04-28T03:29:53;97642.69;;;11.43;89.37
7802;BME280;3945;48.952;9.506;2023-04-28T03:32:19;97648.25;;;11.41;89.79
7802;BME280;3945;48.952;9.506;2023-04-28T03:34:45;97642.63;;;11.38;88.99
7802;BME280;3945;48.952;9.506;2023-04-28T03:37:12;97642.81;;;11.31;88.51
7802;BME280;3945;48.952;9.506;2023-04-28T03:39:38;97643.59;;;11.26;88.29
7802;BME280;3945;48.952;9.506;2023-04-28T03:42:06;97639.50;;;11.19;88.96
7802;BME280;3945;48.952;9.506;2023-04-28T03:44:32;97636.81;;;11.14;89.31
7802;BME280;3945;48.952;9.506;2023-04-28T03:46:59;97625.03;;;11.10;89.53
7802;BME280;3945;48.952;9.506;2023-04-28T03:49:25;97617.56;;;11.07;90.19
7802;BME280;3945;48.952;9.506;2023-04-28T03:51:51;97618.63;;;11.06;91.04
7802;BME280;3945;48.952;9.506;2023-04-28T03:54:18;97607.72;;;11.07;92.53
7802;BME280;3945;48.952;9.506;2023-04-28T03:56:44;97604.28;;;11.12;93.84
7802;BME280;3945;48.952;9.506;2023-04-28T03:59:12;97604.34;;;11.17;94.60
7802;BME280;3945;48.952;9.506;2023-04-28T04:01:38;97605.44;;;11.21;95.09
7802;BME280;3945;48.952;9.506;2023-04-28T04:04:05;97595.88;;;11.25;95.30
7802;BME280;3945;48.952;9.506;2023-04-28T04:06:31;97595.41;;;11.28;95.11
7802;BME280;3945;48.952;9.506;2023-04-28T04:08:58;97602.34;;;11.29;94.72
7802;BME280;3945;48.952;9.506;2023-04-28T04:11:24;97607.66;;;11.29;93.77
7802;BME280;3945;48.952;9.506;2023-04-28T04:13:50;97599.59;;;11.24;93.80
7802;BME280;3945;48.952;9.506;2023-04-28T04:16:18;97604.16;;;11.23;93.07
7802;BME280;3945;48.952;9.506;2023-04-28T04:18:45;97605.44;;;11.21;93.35
7802;BME280;3945;48.952;9.506;2023-04-28T04:21:12;97598.75;;;11.18;93.42
7802;BME280;3945;48.952;9.506;2023-04-28T04:23:38;97595.84;;;11.20;93.70
7802;BME280;3945;48.952;9.506;2023-04-28T04:26:04;97592.69;;;11.23;94.20
7802;BME280;3945;48.952;9.506;2023-04-28T04:28:31;97596.94;;;11.24;94.71
7802;BME280;3945;48.952;9.506;2023-04-28T04:30:57;97593.22;;;11.25;94.89
7802;BME280;3945;48.952;9.506;2023-04-28T04:33:25;97594.84;;;11.26;95.22
7802;BME280;3945;48.952;9.506;2023-04-28T04:35:51;97606.84;;;11.28;95.67
7802;BME280;3945;48.952;9.506;2023-04-28T04:38:18;97607.91;;;11.27;96.16
7802;BME280;3945;48.952;9.506;2023-04-28T04:40:44;97611.13;;;11.29;96.40
7802;BME280;3945;48.952;9.506;2023-04-28T04:43:10;97613.50;;;11.31;97.01
7802;BME280;3945;48.952;9.506;2023-04-28T04:45:37;97605.03;;;11.34;97.27
7802;BME280;3945;48.952;9.506;2023-04-28T04:48:03;97614.13;;;11.38;97.83
7802;BME280;3945;48.952;9.506;2023-04-28T04:50:31;97608.53;;;11.40;97.87
7802;BME280;3945;48.952;9.506;2023-04-28T04:52:57;97609.34;;;11.40;98.03
7802;BME280;3945;48.952;9.506;2023-04-28T04:55:24;97604.84;;;11.46;98.04
7802;BME280;3945;48.952;9.506;2023-04-28T04:57:50;97612.84;;;11.46;97.63
7802;BME280;3945;48.952;9.506;2023-04-28T05:00:17;97599.00;;;11.44;97.66
7802;BME280;3945;48.952;9.506;2023-04-28T05:02:44;97608.31;;;11.46;97.43
7802;BME280;3945;48.952;9.506;2023-04-28T05:05:10;97608.31;;;11.46;97.29
7802;BME280;3945;48.952;9.506;2023-04-28T05:07:38;97604.91;;;11.51;97.62
7802;BME280;3945;48.952;9.506;2023-04-28T05:10:04;97593.44;;;11.50;97.61
7802;BME280;3945;48.952;9.506;2023-04-28T05:12:31;97595.88;;;11.52;97.60
7802;BME280;3945;48.952;9.506;2023-04-28T05:14:58;97591.63;;;11.56;98.11
7802;BME280;3945;48.952;9.506;2023-04-28T05:17:24;97594.84;;;11.58;97.76
7802;BME280;3945;48.952;9.506;2023-04-28T05:19:50;97588.47;;;11.59;98.29
7802;BME280;3945;48.952;9.506;2023-04-28T05:22:17;97571.13;;;11.61;98.54
7802;BME280;3945;48.952;9.506;2023-04-28T05:24:44;97586.63;;;11.64;98.21
7802;BME280;3945;48.952;9.506;2023-04-28T05:27:11;97594.91;;;11.68;98.59
7802;BME280;3945;48.952;9.506;2023-04-28T05:29:37;97592.22;;;11.68;98.58
7802;BME280;3945;48.952;9.506;2023-04-28T05:32:04;97593.59;;;11.70;98.34
7802;BME280;3945;48.952;9.506;2023-04-28T05:34:30;97594.41;;;11.71;98.58
7802;BME280;3945;48.952;9.506;2023-04-28T05:36:56;97594.16;;;11.72;99.24
7802;BME280;3945;48.952;9.506;2023-04-28T05:39:23;97593.66;;;11.76;99.14
7802;BME280;3945;48.952;9.506;2023-04-28T05:41:50;97585.66;;;11.76;99.24
7802;BME280;3945;48.952;9.506;2023-04-28T05:44:17;97583.00;;;11.76;99.68
7802;BME280;3945;48.952;9.506;2023-04-28T05:46:43;97587.53;;;11.75;99.24
7802;BME280;3945;48.952;9.506;2023-04-28T05:49:09;97586.47;;;11.76;100.00
7802;BME280;3945;48.952;9.506;2023-04-28T05:51:36;97580.88;;;11.78;100.00
7802;BME280;3945;48.952;9.506;2023-04-28T05:54:02;97589.97;;;11.82;100.00
7802;BME280;3945;48.952;9.506;2023-04-28T05:56:29;97592.13;;;11.85;100.00
7802;BME280;3945;48.952;9.506;2023-04-28T05:58:56;97591.34;;;11.89;99.80
7802;BME280;3945;48.952;9.506;2023-04-28T06:01:24;97591.91;;;11.91;100.00
7802;BME280;3945;48.952;9.506;2023-04-28T06:03:51;97597.53;;;11.95;100.00
7802;BME280;3945;48.952;9.506;2023-04-28T06:06:20;97583.41;;;11.99;99.08
7802;BME280;3945;48.952;9.506;2023-04-28T06:08:46;97586.91;;;12.05;96.75
7802;BME280;3945;48.952;9.506;2023-04-28T06:11:13;97597.09;;;12.13;93.73
7802;BME280;3945;48.952;9.506;2023-04-28T06:13:39;97600.06;;;12.17;93.58
7802;BME280;3945;48.952;9.506;2023-04-28T06:16:07;97590.22;;;12.22;94.69
7802;BME280;3945;48.952;9.506;2023-04-28T06:18:33;97585.94;;;12.26;95.74
7802;BME280;3945;48.952;9.506;2023-04-28T06:21:00;97599.59;;;12.30;97.11
7802;BME280;3945;48.952;9.506;2023-04-28T06:23:26;97593.19;;;12.31;97.59
7802;BME280;3945;48.952;9.506;2023-04-28T06:25:53;97592.66;;;12.34;96.75
7802;BME280;3945;48.952;9.506;2023-04-28T06:28:19;97599.34;;;12.36;92.80
7802;BME280;3945;48.952;9.506;2023-04-28T06:30:45;97608.97;;;12.37;90.70
7802;BME280;3945;48.952;9.506;2023-04-28T06:33:13;97609.50;;;12.39;91.12
7802;BME280;3945;48.952;9.506;2023-04-28T06:35:40;97610.84;;;12.42;92.33
7802;BME280;3945;48.952;9.506;2023-04-28T06:38:06;97603.09;;;12.40;92.43
7802;BME280;3945;48.952;9.506;2023-04-28T06:40:32;97601.53;;;12.44;92.69
7802;BME280;3945;48.952;9.506;2023-04-28T06:42:59;97605.53;;;12.47;92.35
7802;BME280;3945;48.952;9.506;2023-04-28T06:45:25;97595.41;;;12.49;91.95
7802;BME280;3945;48.952;9.506;2023-04-28T06:47:51;97601.28;;;12.51;91.75
7802;BME280;3945;48.952;9.506;2023-04-28T06:50:21;97595.16;;;12.50;91.72
7802;BME280;3945;48.952;9.506;2023-04-28T06:52:47;97602.84;;;12.47;92.41
7802;BME280;3945;48.952;9.506;2023-04-28T06:55:14;97600.97;;;12.42;93.42
7802;BME280;3945;48.952;9.506;2023-04-28T06:57:41;97593.47;;;12.39;93.49
7802;BME280;3945;48.952;9.506;2023-04-28T07:00:07;97593.22;;;12.36;93.64
7802;BME280;3945;48.952;9.506;2023-04-28T07:02:34;97594.00;;;12.31;94.52
7802;BME280;3945;48.952;9.506;2023-04-28T07:05:00;97590.78;;;12.29;94.63
7802;BME280;3945;48.952;9.506;2023-04-28T07:07:28;97589.44;;;12.27;95.27
7802;BME280;3945;48.952;9.506;2023-04-28T07:09:55;97595.56;;;12.27;95.91
7802;BME280;3945;48.952;9.506;2023-04-28T07:12:23;97595.31;;;12.29;96.70
7802;BME280;3945;48.952;9.506;2023-04-28T07:14:49;97597.69;;;12.25;96.54
7802;BME280;3945;48.952;9.506;2023-04-28T07:17:15;97589.41;;;12.22;96.23
7802;BME280;3945;48.952;9.506;2023-04-28T07:19:42;97567.78;;;12.18;97.14
7802;BME280;3945;48.952;9.506;2023-04-28T07:22:08;97559.50;;;12.15;97.79
7802;BME280;3945;48.952;9.506;2023-04-28T07:24:36;97567.50;;;12.15;98.78
7802;BME280;3945;48.952;9.506;2023-04-28T07:27:03;97572.84;;;12.15;99.17
7802;BME280;3945;48.952;9.506;2023-04-28T07:29:29;97554.19;;;12.20;99.49
7802;BME280;3945;48.952;9.506;2023-04-28T07:31:58;97565.16;;;12.23;100.00
7802;BME280;3945;48.952;9.506;2023-04-28T07:34:24;97564.09;;;12.24;100.00
7802;BME280;3945;48.952;9.506;2023-04-28T07:36:51;97572.63;;;12.26;100.00
7802;BME280;3945;48.952;9.506;2023-04-28T07:39:17;97582.47;;;12.26;100.00
7802;BME280;3945;48.952;9.506;2023-04-28T07:41:46;97592.09;;;12.27;100.00
7802;BME280;3945;48.952;9.506;2023-04-28T07:44:12;97568.31;;;12.20;100.00
7802;BME280;3945;48.952;9.506;2023-04-28T07:46:39;97571.00;;;12.20;100.00
7802;BME280;3945;48.952;9.506;2023-04-28T07:49:05;97567.78;;;12.18;100.00
7802;BME280;3945;48.952;9.506;2023-04-28T07:51:32;97571.53;;;12.17;100.00
7802;BME280;3945;48.952;9.506;2023-04-28T07:53:58;97574.72;;;12.19;100.00
7802;BME280;3945;48.952;9.506;2023-04-28T07:56:25;97570.19;;;12.20;100.00
7802;BME280;3945;48.952;9.506;2023-04-28T07:58:52;97566.75;;;12.24;100.00
7802;BME280;3945;48.952;9.506;2023-04-28T08:01:19;97583.84;;;12.28;100.00
7802;BME280;3945;48.952;9.506;2023-04-28T08:03:45;97587.06;;;12.30;100.00
7802;BME280;3945;48.952;9.506;2023-04-28T08:06:12;97588.66;;;12.31;100.00
7802;BME280;3945;48.952;9.506;2023-04-28T08:08:38;97592.91;;;12.32;100.00
7802;BME280;3945;48.952;9.506;2023-04-28T08:11:04;97590.78;;;12.34;100.00
7802;BME280;3945;48.952;9.506;2023-04-28T08:13:31;97586.25;;;12.35;100.00
7802;BME280;3945;48.952;9.506;2023-04-28T08:15:59;97580.41;;;12.38;100.00
7802;BME280;3945;48.952;9.506;2023-04-28T08:18:26;97594.03;;;12.41;100.00
7802;BME280;3945;48.952;9.506;2023-04-28T08:20:52;97595.13;;;12.45;100.00
7802;BME280;3945;48.952;9.506;2023-04-28T08:23:18;97598.88;;;12.49;100.00
7802;BME280;3945;48.952;9.506;2023-04-28T08:25:45;97591.16;;;12.53;100.00
7802;BME280;3945;48.952;9.506;2023-04-28T08:28:12;97598.63;;;12.61;100.00
7802;BME280;3945;48.952;9.506;2023-04-28T08:30:38;97595.47;;;12.64;100.00
7802;BME280;3945;48.952;9.506;2023-04-28T08:33:06;97590.94;;;12.70;100.00
7802;BME280;3945;48.952;9.506;2023-04-28T08:35:32;97593.34;;;12.76;100.00
7802;BME280;3945;48.952;9.506;2023-04-28T08:37:59;97589.38;;;12.84;100.00
7802;BME280;3945;48.952;9.506;2023-04-28T08:40:25;97599.84;;;12.96;100.00
7802;BME280;3945;48.952;9.506;2023-04-28T08:42:58;97598.50;;;13.03;100.00
7802;BME280;3945;48.952;9.506;2023-04-28T08:45:27;97599.06;;;13.10;100.00
7802;BME280;3945;48.952;9.506;2023-04-28T08:47:55;97597.47;;;13.14;100.00
7802;BME280;3945;48.952;9.506;2023-04-28T08:50:23;97587.84;;;13.18;100.00
7802;BME280;3945;48.952;9.506;2023-04-28T08:52:51;97595.63;;;13.25;100.00
7802;BME280;3945;48.952;9.506;2023-04-28T08:55:17;97603.41;;;13.32;100.00
7802;BME280;3945;48.952;9.506;2023-04-28T08:57:44;97596.19;;;13.37;100.00
7802;BME280;3945;48.952;9.506;2023-04-28T09:00:11;97603.63;;;13.40;100.00
7802;BME280;3945;48.952;9.506;2023-04-28T09:02:38;97613.81;;;13.43;100.00
7802;BME280;3945;48.952;9.506;2023-04-28T09:05:06;97618.09;;;13.39;100.00
7802;BME280;3945;48.952;9.506;2023-04-28T09:07:34;97627.44;;;13.42;100.00
7802;BME280;3945;48.952;9.506;2023-04-28T09:10:17;97619.97;;;13.49;100.00
7802;BME280;3945;48.952;9.506;2023-04-28T09:12:44;97621.31;;;13.51;100.00
7802;BME280;3945;48.952;9.506;2023-04-28T09:15:10;97623.72;;;13.53;100.00
7802;BME280;3945;48.952;9.506;2023-04-28T09:17:50;97627.72;;;13.55;100.00
7802;BME280;3945;48.952;9.506;2023-04-28T09:20:19;97630.13;;;13.62;100.00
7802;BME280;3945;48.952;9.506;2023-04-28T09:22:48;97621.56;;;13.65;100.00
7802;BME280;3945;48.952;9.506;2023-04-28T09:25:14;97622.91;;;13.67;100.00
7802;BME280;3945;48.952;9.506;2023-04-28T09:27:41;97617.84;;;13.66;99.43
7802;BME280;3945;48.952;9.506;2023-04-28T09:30:08;97617.56;;;13.67;99.84
7802;BME280;3945;48.952;9.506;2023-04-28T09:32:34;97617.56;;;13.67;99.98
7802;BME280;3945;48.952;9.506;2023-04-28T09:35:01;97619.97;;;13.69;99.80
7802;BME280;3945;48.952;9.506;2023-04-28T09:37:29;97611.66;;;13.71;100.00
7802;BME280;3945;48.952;9.506;2023-04-28T09:40:01;97615.41;;;13.80;100.00
7802;BME280;3945;48.952;9.506;2023-04-28T09:42:31;97607.13;;;13.81;100.00
7802;BME280;3945;48.952;9.506;2023-04-28T09:44:58;97604.72;;;13.90;100.00
7802;BME280;3945;48.952;9.506;2023-04-28T09:47:26;97592.91;;;13.91;100.00
7802;BME280;3945;48.952;9.506;2023-04-28T09:49:53;97593.19;;;13.94;100.00
7802;BME280;3945;48.952;9.506;2023-04-28T09:52:20;97594.53;;;13.97;100.00
7802;BME280;3945;48.952;9.506;2023-04-28T09:54:48;97598.00;;;14.02;100.00
7802;BME280;3945;48.952;9.506;2023-04-28T09:57:16;97588.38;;;14.12;100.00
7802;BME280;3945;48.952;9.506;2023-04-28T09:59:43;97599.81;;;14.22;100.00
7802;BME280;3945;48.952;9.506;2023-04-28T10:02:11;97600.63;;;14.23;100.00
7802;BME280;3945;48.952;9.506;2023-04-28T10:04:38;97603.03;;;14.24;100.00
7802;BME280;3945;48.952;9.506;2023-04-28T10:07:05;97602.22;;;14.24;100.00
7802;BME280;3945;48.952;9.506;2023-04-28T10:09:32;97606.75;;;14.28;100.00
7802;BME280;3945;48.952;9.506;2023-04-28T10:11:59;97598.72;;;14.28;100.00
7802;BME280;3945;48.952;9.506;2023-04-28T10:14:27;97605.69;;;14.29;100.00
7802;BME280;3945;48.952;9.506;2023-04-28T10:16:54;97593.66;;;14.32;100.00
7802;BME280;3945;48.952;9.506;2023-04-28T10:19:21;97596.31;;;14.37;100.00
7802;BME280;3945;48.952;9.506;2023-04-28T10:21:51;97598.19;;;14.36;100.00
7802;BME280;3945;48.952;9.506;2023-04-28T10:24:21;97596.06;;;14.38;100.00
7802;BME280;3945;48.952;9.506;2023-04-28T10:29:40;97596.06;;;14.38;100.00
7802;BME280;3945;48.952;9.506;2023-04-28T10:32:19;97601.97;;;14.40;100.00
7802;BME280;3945;48.952;9.506;2023-04-28T10:34:47;97604.09;;;14.38;100.00
7802;BME280;3945;48.952;9.506;2023-04-28T10:37:14;97602.22;;;14.39;100.00
7802;BME280;3945;48.952;9.506;2023-04-28T10:45:08;97599.78;;;14.48;100.00
7802;BME280;3945;48.952;9.506;2023-04-28T10:50:16;97597.88;;;14.53;100.00
7802;BME280;3945;48.952;9.506;2023-04-28T10:52:48;97586.84;;;14.65;100.00
7802;BME280;3945;48.952;9.506;2023-04-28T10:55:30;97594.34;;;14.68;100.00
7802;BME280;3945;48.952;9.506;2023-04-28T11:00:46;97598.31;;;14.75;100.00
7802;BME280;3945;48.952;9.506;2023-04-28T11:08:39;97593.63;;;15.01;100.00
7802;BME280;3945;48.952;9.506;2023-04-28T11:11:18;97598.94;;;15.06;100.00
7802;BME280;3945;48.952;9.506;2023-04-28T11:13:45;97602.63;;;15.15;100.00
7802;BME280;3945;48.952;9.506;2023-04-28T11:16:16;97608.75;;;15.26;100.00
7802;BME280;3945;48.952;9.506;2023-04-28T11:18:54;97606.25;;;15.35;100.00
7802;BME280;3945;48.952;9.506;2023-04-28T11:21:21;97610.47;;;15.46;100.00
7802;BME280;3945;48.952;9.506;2023-04-28T11:23:47;97607.75;;;15.51;100.00
7802;BME280;3945;48.952;9.506;2023-04-28T11:26:14;97612.31;;;15.55;100.00
7802;BME280;3945;48.952;9.506;2023-04-28T11:28:47;97615.50;;;15.57;100.00
7802;BME280;3945;48.952;9.506;2023-04-28T11:31:14;97612.03;;;15.57;100.00
7802;BME280;3945;48.952;9.506;2023-04-28T11:33:45;97617.41;;;15.52;100.00
7802;BME280;3945;48.952;9.506;2023-04-28T11:36:22;97611.28;;;15.46;100.00
7802;BME280;3945;48.952;9.506;2023-04-28T11:38:48;97613.91;;;15.51;100.00
7802;BME280;3945;48.952;9.506;2023-04-28T11:41:15;97613.69;;;15.48;100.00
7802;BME280;3945;48.952;9.506;2023-04-28T11:43:41;97609.34;;;15.52;100.00
7802;BME280;3945;48.952;9.506;2023-04-28T11:46:07;97600.25;;;15.53;100.00
7802;BME280;3945;48.952;9.506;2023-04-28T11:48:34;97600.00;;;15.54;100.00
7802;BME280;3945;48.952;9.506;2023-04-28T11:51:03;97600.50;;;15.56;100.00
7802;BME280;3945;48.952;9.506;2023-04-28T11:53:41;97597.78;;;15.61;100.00
7802;BME280;3945;48.952;9.506;2023-04-28T11:56:08;97600.38;;;15.72;100.00
7802;BME280;3945;48.952;9.506;2023-04-28T11:58:34;97600.03;;;15.78;100.00
7802;BME280;3945;48.952;9.506;2023-04-28T12:01:07;97593.25;;;15.86;100.00
7802;BME280;3945;48.952;9.506;2023-04-28T12:03:40;97590.50;;;15.96;100.00
7802;BME280;3945;48.952;9.506;2023-04-28T12:06:08;97596.78;;;16.10;100.00
7802;BME280;3945;48.952;9.506;2023-04-28T12:08:35;97601.56;;;16.18;100.00
7802;BME280;3945;48.952;9.506;2023-04-28T12:11:07;97591.53;;;16.24;100.00
7802;BME280;3945;48.952;9.506;2023-04-28T12:13:34;97595.28;;;16.28;100.00
7802;BME280;3945;48.952;9.506;2023-04-28T12:16:02;97592.88;;;16.26;100.00
7802;BME280;3945;48.952;9.506;2023-04-28T12:18:29;97586.19;;;16.24;100.00
7802;BME280;3945;48.952;9.506;2023-04-28T12:20:56;97594.81;;;16.21;100.00
7802;BME280;3945;48.952;9.506;2023-04-28T12:23:29;97597.19;;;16.22;100.00
7802;BME280;3945;48.952;9.506;2023-04-28T12:25:56;97603.72;;;16.16;100.00
7802;BME280;3945;48.952;9.506;2023-04-28T12:28:22;97608.28;;;16.16;100.00
7802;BME280;3945;48.952;9.506;2023-04-28T12:30:49;97593.22;;;16.20;100.00
7802;BME280;3945;48.952;9.506;2023-04-28T12:33:22;97591.78;;;16.27;100.00
7802;BME280;3945;48.952;9.506;2023-04-28T12:35:49;97594.97;;;16.29;100.00
7802;BME280;3945;48.952;9.506;2023-04-28T12:38:15;97598.97;;;16.32;100.00
7802;BME280;3945;48.952;9.506;2023-04-28T12:40:44;97608.38;;;16.34;100.00
7802;BME280;3945;48.952;9.506;2023-04-28T12:43:11;97607.56;;;16.34;100.00
7802;BME280;3945;48.952;9.506;2023-04-28T12:45:37;97602.19;;;16.34;100.00
7802;BME280;3945;48.952;9.506;2023-04-28T12:48:03;97611.41;;;16.23;100.00
7802;BME280;3945;48.952;9.506;2023-04-28T12:50:30;97616.06;;;16.17;100.00
7802;BME280;3945;48.952;9.506;2023-04-28T12:52:57;97629.34;;;16.04;100.00
7802;BME280;3945;48.952;9.506;2023-04-28T12:55:23;97627.81;;;15.92;100.00
7802;BME280;3945;48.952;9.506;2023-04-28T12:57:51;97622.50;;;15.87;100.00
7802;BME280;3945;48.952;9.506;2023-04-28T13:00:17;97628.94;;;15.86;100.00
7802;BME280;3945;48.952;9.506;2023-04-28T13:02:47;97633.56;;;15.81;100.00
7802;BME280;3945;48.952;9.506;2023-04-28T13:05:13;97627.41;;;15.80;100.00
7802;BME280;3945;48.952;9.506;2023-04-28T13:07:40;97628.25;;;15.76;100.00
7802;BME280;3945;48.952;9.506;2023-04-28T13:10:07;97632.06;;;15.70;100.00
7802;BME280;3945;48.952;9.506;2023-04-28T13:12:33;97624.63;;;15.56;100.00
7802;BME280;3945;48.952;9.506;2023-04-28T13:15:01;97624.66;;;15.51;100.00
7802;BME280;3945;48.952;9.506;2023-04-28T13:17:28;97611.00;;;15.48;100.00
7802;BME280;3945;48.952;9.506;2023-04-28T13:19:54;97606.69;;;15.52;100.00
7802;BME280;3945;48.952;9.506;2023-04-28T13:22:20;97593.81;;;15.54;100.00
7802;BME280;3945;48.952;9.506;2023-04-28T13:24:47;97586.59;;;15.54;100.00
7802;BME280;3945;48.952;9.506;2023-04-28T13:27:13;97591.38;;;15.57;100.00
7802;BME280;3945;48.952;9.506;2023-04-28T13:29:39;97584.38;;;15.61;100.00
7802;BME280;3945;48.952;9.506;2023-04-28T13:32:08;97584.09;;;15.63;100.00
7802;BME280;3945;48.952;9.506;2023-04-28T13:34:34;97572.53;;;15.68;100.00
7802;BME280;3945;48.952;9.506;2023-04-28T13:37:01;97562.25;;;15.75;100.00